Time;durP1;ratioP1;P1;durP2;ratioP2;P2;SDS_P1;SDS_P2;PMS_P1;PMS_P2;Temp;Humidity;BMP_temperature;BMP_pressure;BME280_temperature;BME280_humidity;BME280_pressure;Samples;Min_cycle;Max_cycle;Signal;HPM_P1;HPM_P2
2023/10/18 00:00:15;;;;;;;5.70;4.82;;;9.00;99.90;;;;;;5053082;28;20167;-62
2023/10/18 00:02:44;;;;;;;5.22;4.75;;;9.00;99.90;;;;;;5053201;28;20571;-63
2023/10/18 00:05:10;;;;;;;7.47;4.50;;;8.90;99.90;;;;;;5053027;28;20201;-63
2023/10/18 00:07:36;;;;;;;5.07;4.63;;;8.90;99.90;;;;;;5052973;28;20199;-62
2023/10/18 00:10:04;;;;;;;5.13;4.53;;;9.00;99.90;;;;;;5053058;28;20183;-62
2023/10/18 00:12:33;;;;;;;9.80;4.95;;;8.90;99.90;;;;;;5052890;28;20180;-63
2023/10/18 00:14:59;;;;;;;6.88;4.28;;;9.00;99.90;;;;;;5052773;28;20183;-62
2023/10/18 00:17:26;;;;;;;5.05;4.25;;;8.90;99.90;;;;;;5053022;28;20533;-62
2023/10/18 00:19:51;;;;;;;5.13;4.63;;;8.90;99.90;;;;;;5052851;28;20227;-62
2023/10/18 00:22:17;;;;;;;5.00;4.50;;;9.00;99.90;;;;;;5052775;28;20194;-62
2023/10/18 00:24:43;;;;;;;5.90;4.55;;;8.80;99.90;;;;;;5052855;28;20259;-62
2023/10/18 00:27:09;;;;;;;5.72;4.70;;;8.90;99.90;;;;;;5052740;28;20293;-63
2023/10/18 00:29:36;;;;;;;5.60;4.90;;;8.80;99.90;;;;;;5052603;28;20190;-64
2023/10/18 00:32:03;;;;;;;5.95;4.70;;;8.70;99.90;;;;;;5052861;28;20171;-62
2023/10/18 00:34:29;;;;;;;5.22;4.53;;;8.70;99.90;;;;;;5052770;28;20654;-62
2023/10/18 00:36:55;;;;;;;5.63;4.47;;;8.60;99.90;;;;;;5052768;28;20266;-62
2023/10/18 00:39:32;;;;;;;7.45;4.40;;;8.70;99.90;;;;;;5052674;28;20642;-63
2023/10/18 00:42:44;;;;;;;5.55;4.47;;;8.80;99.90;;;;;;5052570;28;20175;-62
2023/10/18 00:44:52;;;;;;;5.15;4.63;;;8.80;99.90;;;;;;5048473;28;20639;-63
2023/10/18 00:47:17;;;;;;;6.28;4.38;;;8.80;99.90;;;;;;5053270;28;20218;-62
2023/10/18 00:49:43;;;;;;;6.80;4.15;;;8.80;99.90;;;;;;5056536;28;20655;-62
2023/10/18 00:52:10;;;;;;;5.72;4.30;;;8.80;99.90;;;;;;5056194;28;20176;-62
2023/10/18 00:54:38;;;;;;;4.68;4.20;;;8.70;99.90;;;;;;5055933;28;20183;-62
2023/10/18 00:57:04;;;;;;;6.30;4.35;;;8.70;99.90;;;;;;5056364;28;20641;-62
2023/10/18 00:59:30;;;;;;;4.57;3.95;;;8.70;99.90;;;;;;5056018;28;20175;-64
2023/10/18 01:02:14;;;;;;;5.10;4.00;;;8.70;99.90;;;;;;5056095;28;20180;-62
2023/10/18 01:04:41;;;;;;;6.00;4.30;;;8.70;99.90;;;;;;5056088;28;20233;-62
2023/10/18 01:07:16;;;;;;;4.70;4.18;;;8.60;99.90;;;;;;5055725;28;20711;-62
2023/10/18 01:09:49;;;;;;;5.22;3.88;;;8.50;99.90;;;;;;5056061;28;20170;-62
2023/10/18 01:12:15;;;;;;;5.68;4.30;;;8.60;99.90;;;;;;5055961;28;20175;-62
2023/10/18 01:14:43;;;;;;;5.65;4.30;;;8.60;99.90;;;;;;5055786;28;20168;-62
2023/10/18 01:17:08;;;;;;;4.97;3.85;;;8.60;99.90;;;;;;5055761;28;20233;-63
2023/10/18 01:19:35;;;;;;;4.63;4.18;;;8.60;99.90;;;;;;5055280;28;20231;-63
2023/10/18 01:22:04;;;;;;;5.20;4.07;;;8.70;99.90;;;;;;5055864;28;20171;-61
2023/10/18 01:24:35;;;;;;;5.75;4.07;;;8.70;99.90;;;;;;5055656;28;20194;-63
2023/10/18 01:27:02;;;;;;;4.85;4.05;;;8.70;99.90;;;;;;5055649;28;20206;-62
2023/10/18 01:29:29;;;;;;;4.80;3.85;;;8.70;99.90;;;;;;5055462;28;20321;-62
2023/10/18 01:31:55;;;;;;;4.85;4.30;;;8.60;99.90;;;;;;5055405;28;20209;-63
2023/10/18 01:34:21;;;;;;;4.03;3.60;;;8.40;99.90;;;;;;5055257;28;20252;-62
2023/10/18 01:36:46;;;;;;;6.65;4.63;;;8.40;99.90;;;;;;5055482;28;20217;-63
2023/10/18 01:39:18;;;;;;;5.80;4.30;;;8.50;99.90;;;;;;5055447;28;20532;-62
2023/10/18 01:41:50;;;;;;;5.00;4.50;;;8.40;99.90;;;;;;5055529;28;20180;-62
2023/10/18 01:44:27;;;;;;;7.57;5.03;;;8.60;99.90;;;;;;5055445;28;20249;-62
2023/10/18 01:46:55;;;;;;;5.13;4.50;;;8.50;99.90;;;;;;5054978;28;20267;-62
2023/10/18 01:49:25;;;;;;;5.43;4.53;;;8.50;99.90;;;;;;5055268;28;20186;-62
2023/10/18 01:51:52;;;;;;;5.88;4.60;;;8.50;99.90;;;;;;5055128;28;20265;-62
2023/10/18 01:54:20;;;;;;;5.53;4.30;;;8.60;99.90;;;;;;5054997;28;20179;-62
2023/10/18 01:56:51;;;;;;;5.32;4.10;;;8.60;99.90;;;;;;5054965;28;20172;-62
2023/10/18 01:59:17;;;;;;;6.28;4.43;;;8.50;99.90;;;;;;5054253;28;20179;-62
2023/10/18 02:01:53;;;;;;;6.72;4.82;;;8.40;99.90;;;;;;5055108;28;20201;-62
2023/10/18 02:04:24;;;;;;;5.40;4.35;;;8.50;99.90;;;;;;5055218;28;20541;-62
2023/10/18 02:06:50;;;;;;;5.90;4.68;;;8.50;99.90;;;;;;5054793;28;20266;-62
2023/10/18 02:09:16;;;;;;;5.20;4.32;;;8.60;99.90;;;;;;5054686;28;20171;-62
2023/10/18 02:11:43;;;;;;;5.05;4.18;;;8.50;99.90;;;;;;5054646;28;20655;-62
2023/10/18 02:14:10;;;;;;;4.80;3.92;;;8.50;99.90;;;;;;5054916;28;20221;-62
2023/10/18 02:16:36;;;;;;;5.38;3.67;;;8.50;99.90;;;;;;5054768;28;20175;-62
2023/10/18 02:19:02;;;;;;;4.38;3.95;;;8.50;99.90;;;;;;5054555;28;20313;-61
2023/10/18 02:21:27;;;;;;;5.60;4.20;;;8.60;99.90;;;;;;5052976;28;20235;-62
2023/10/18 02:23:53;;;;;;;4.68;4.00;;;8.60;99.90;;;;;;5054494;28;20265;-62
2023/10/18 02:26:30;;;;;;;4.75;3.90;;;8.50;99.90;;;;;;5054355;28;20202;-62
2023/10/18 02:28:59;;;;;;;6.63;3.60;;;8.40;99.90;;;;;;5054518;28;20202;-62
2023/10/18 02:31:25;;;;;;;6.20;3.70;;;8.40;99.90;;;;;;5054335;28;20187;-61
2023/10/18 02:33:54;;;;;;;5.28;4.10;;;8.40;99.90;;;;;;5054574;28;20644;-62
2023/10/18 02:36:32;;;;;;;5.60;3.90;;;8.40;99.90;;;;;;5054224;28;20179;-62
2023/10/18 02:38:58;;;;;;;4.28;3.88;;;8.50;99.90;;;;;;5054089;28;20232;-62
2023/10/18 02:41:26;;;;;;;6.20;4.35;;;8.40;99.90;;;;;;5054249;28;20535;-62
2023/10/18 02:43:57;;;;;;;4.93;4.38;;;8.50;99.90;;;;;;5054166;28;20183;-62
2023/10/18 02:46:24;;;;;;;4.82;3.90;;;8.40;99.90;;;;;;5054111;28;20206;-62
2023/10/18 02:48:53;;;;;;;5.72;3.88;;;8.50;99.90;;;;;;5053991;28;20202;-62
2023/10/18 02:51:24;;;;;;;4.75;3.92;;;8.50;99.90;;;;;;5053865;28;20262;-62
2023/10/18 02:53:53;;;;;;;4.28;3.88;;;8.50;99.90;;;;;;5054076;28;20599;-61
2023/10/18 02:59:15;;;;;;;4.30;3.90;;;8.30;99.90;;;;;;5048163;28;20179;-63
2023/10/18 03:01:40;;;;;;;4.80;4.20;;;8.30;99.90;;;;;;5053666;28;20186;-62
2023/10/18 03:04:14;;;;;;;4.45;3.75;;;8.40;99.90;;;;;;5053617;28;20182;-61
2023/10/18 03:06:40;;;;;;;4.47;3.97;;;8.40;99.90;;;;;;5053789;28;20720;-62
2023/10/18 03:11:53;;;;;;;4.93;4.03;;;8.40;99.90;;;;;;5053035;28;20217;-61
2023/10/18 03:14:23;;;;;;;4.75;3.95;;;8.30;99.90;;;;;;5053405;28;20607;-62
2023/10/18 03:16:49;;;;;;;6.20;4.00;;;8.40;99.90;;;;;;5053657;28;20172;-62
2023/10/18 03:19:18;;;;;;;4.40;3.92;;;8.40;99.90;;;;;;5053164;28;20579;-62
2023/10/18 03:21:50;;;;;;;4.30;3.92;;;8.50;99.90;;;;;;5053632;28;20571;-62
2023/10/18 03:24:19;;;;;;;5.60;3.78;;;8.50;99.90;;;;;;5053458;28;20178;-62
2023/10/18 03:26:45;;;;;;;5.20;4.10;;;8.50;99.90;;;;;;5053240;28;20261;-62
2023/10/18 03:29:11;;;;;;;5.00;3.50;;;8.60;99.90;;;;;;5053304;28;20270;-62
2023/10/18 03:31:40;;;;;;;4.75;3.70;;;8.50;99.90;;;;;;5053515;28;20215;-61
2023/10/18 03:34:09;;;;;;;4.70;4.00;;;8.50;99.90;;;;;;5053387;28;20167;-62
2023/10/18 03:36:48;;;;;;;5.97;4.47;;;8.50;99.90;;;;;;5052036;28;20182;-62
2023/10/18 03:39:18;;;;;;;6.40;4.10;;;8.40;99.90;;;;;;5053202;28;20182;-62
2023/10/18 03:41:46;;;;;;;5.75;4.07;;;8.40;99.90;;;;;;5053100;28;20257;-62
2023/10/18 03:44:13;;;;;;;6.18;4.07;;;8.40;99.90;;;;;;5053328;28;20175;-62
2023/10/18 03:46:47;;;;;;;4.50;3.60;;;8.40;99.90;;;;;;5053182;28;20183;-62
2023/10/18 03:49:33;;;;;;;5.40;3.80;;;8.40;99.90;;;;;;5053136;28;20198;-62
2023/10/18 03:52:16;;;;;;;6.32;4.03;;;8.30;99.90;;;;;;5052036;28;20186;-62
2023/10/18 03:54:47;;;;;;;5.28;3.83;;;8.30;99.90;;;;;;5053190;28;20178;-62
2023/10/18 03:57:16;;;;;;;6.53;4.60;;;8.40;99.90;;;;;;5053080;28;20264;-61
2023/10/18 03:59:46;;;;;;;6.78;4.03;;;8.30;99.90;;;;;;5053034;28;20181;-62
2023/10/18 04:02:34;;;;;;;5.82;4.03;;;8.30;99.90;;;;;;5052884;28;20301;-62
2023/10/18 04:04:59;;;;;;;4.28;3.88;;;8.40;99.90;;;;;;5052837;28;20321;-62
2023/10/18 04:07:26;;;;;;;5.03;3.88;;;8.50;99.90;;;;;;5052939;28;20692;-61
2023/10/18 04:12:24;;;;;;;4.82;3.60;;;8.20;99.90;;;;;;5053050;28;20186;-62
2023/10/18 04:14:53;;;;;;;4.80;4.10;;;8.20;99.90;;;;;;5052689;28;20213;-62
2023/10/18 04:20:22;;;;;;;5.18;3.72;;;8.30;99.90;;;;;;5052826;28;20242;-61
2023/10/18 04:22:49;;;;;;;4.53;3.60;;;8.30;99.90;;;;;;5054183;28;20182;-62
2023/10/18 04:25:25;;;;;;;5.95;4.13;;;8.30;99.90;;;;;;5056634;28;20176;-62
2023/10/18 04:27:53;;;;;;;4.50;3.88;;;8.20;99.90;;;;;;5056833;28;20197;-62
2023/10/18 04:30:22;;;;;;;4.20;3.65;;;8.10;99.90;;;;;;5056667;28;20647;-62
2023/10/18 04:32:53;;;;;;;5.20;4.00;;;8.20;99.90;;;;;;5056741;28;20176;-63
2023/10/18 04:35:25;;;;;;;5.72;4.25;;;8.10;99.90;;;;;;5056513;28;20186;-61
2023/10/18 04:37:53;;;;;;;5.22;3.95;;;8.10;99.90;;;;;;5056461;28;20530;-61
2023/10/18 04:40:22;;;;;;;5.38;3.85;;;8.00;99.90;;;;;;5056611;28;20167;-62
2023/10/18 04:42:56;;;;;;;6.63;4.28;;;8.00;99.90;;;;;;5056562;28;20178;-62
2023/10/18 04:45:26;;;;;;;5.97;4.20;;;8.00;99.90;;;;;;5056522;28;20546;-62
2023/10/18 04:48:59;;;;;;;5.53;4.30;;;8.10;99.90;;;;;;5056350;28;20195;-62
2023/10/18 04:50:52;;;;;;;4.70;4.00;;;8.10;99.90;;;;;;5054823;28;20187;-61
2023/10/18 04:53:23;;;;;;;4.70;3.65;;;8.00;99.90;;;;;;5056292;28;20175;-63
2023/10/18 04:55:50;;;;;;;5.40;3.55;;;8.00;99.90;;;;;;5056173;28;20265;-60
2023/10/18 04:58:16;;;;;;;6.03;4.45;;;7.90;99.90;;;;;;5056065;28;20190;-61
2023/10/18 05:00:56;;;;;;;4.95;4.05;;;8.00;99.90;;;;;;5055934;28;20171;-61
2023/10/18 05:03:30;;;;;;;5.80;4.10;;;7.90;99.90;;;;;;5056163;28;20588;-61
2023/10/18 05:05:56;;;;;;;6.47;4.05;;;8.00;99.90;;;;;;5055925;28;20248;-61
2023/10/18 05:08:23;;;;;;;6.05;3.90;;;7.90;99.90;;;;;;5055915;28;20234;-61
2023/10/18 05:10:52;;;;;;;6.72;3.67;;;7.90;99.90;;;;;;5055752;28;20526;-60
2023/10/18 05:13:32;;;;;;;4.60;4.15;;;8.00;99.90;;;;;;5055658;28;20240;-62
2023/10/18 05:16:02;;;;;;;5.43;3.50;;;8.00;99.90;;;;;;5055635;28;20186;-62
2023/10/18 05:18:30;;;;;;;5.43;4.07;;;8.00;99.90;;;;;;5055364;28;20190;-61
2023/10/18 05:20:57;;;;;;;6.75;3.78;;;7.90;99.90;;;;;;5055039;28;20227;-60
2023/10/18 05:23:25;;;;;;;5.28;4.55;;;7.90;99.90;;;;;;5055654;28;20190;-61
2023/10/18 05:28:48;;;;;;;4.95;4.30;;;7.90;99.90;;;;;;5055674;28;20587;-60
2023/10/18 05:34:01;;;;;;;7.55;4.70;;;8.00;99.90;;;;;;5054741;28;20571;-61
2023/10/18 05:36:34;;;;;;;4.93;4.40;;;7.90;99.90;;;;;;5055624;28;20179;-60
2023/10/18 05:39:49;;;;;;;5.53;4.13;;;7.80;99.90;;;;;;5055592;28;20277;-61
2023/10/18 05:42:13;;;;;;;5.15;4.15;;;7.80;99.90;;;;;;5053911;28;20280;-61
2023/10/18 05:44:41;;;;;;;4.65;4.18;;;7.90;99.90;;;;;;5055206;28;20179;-61
2023/10/18 05:47:08;;;;;;;4.80;4.38;;;8.00;99.90;;;;;;5055216;28;20191;-61
2023/10/18 05:49:40;;;;;;;7.10;4.20;;;8.00;99.90;;;;;;5055338;28;20179;-60
2023/10/18 05:54:35;;;;;;;5.88;3.65;;;8.00;99.90;;;;;;5055082;28;20198;-61
2023/10/18 05:57:01;;;;;;;5.07;3.80;;;8.00;99.90;;;;;;5054883;28;20639;-61
2023/10/18 05:59:33;;;;;;;4.72;3.88;;;8.00;99.90;;;;;;5054986;28;20183;-61
2023/10/18 06:02:10;;;;;;;5.10;4.05;;;8.00;99.90;;;;;;5055214;28;20168;-61
2023/10/18 06:04:42;;;;;;;6.18;4.20;;;8.20;99.90;;;;;;5054926;28;20228;-61
2023/10/18 06:07:12;;;;;;;5.13;3.90;;;8.20;99.90;;;;;;5053827;28;20315;-60
2023/10/18 06:12:13;;;;;;;5.32;3.75;;;8.10;99.90;;;;;;5054897;28;20690;-61
2023/10/18 06:14:45;;;;;;;6.93;4.20;;;8.10;99.90;;;;;;5054781;28;20168;-61
2023/10/18 06:17:12;;;;;;;4.22;3.83;;;8.20;99.90;;;;;;5054171;28;20198;-61
2023/10/18 06:19:38;;;;;;;4.85;3.60;;;8.10;99.90;;;;;;5054378;28;20636;-61
2023/10/18 06:24:49;;;;;;;5.82;3.80;;;8.20;99.90;;;;;;5054718;28;20209;-61
2023/10/18 06:27:16;;;;;;;5.13;4.00;;;8.20;99.90;;;;;;5054662;28;20198;-61
2023/10/18 06:29:45;;;;;;;4.45;3.58;;;8.20;99.90;;;;;;5054386;28;20179;-62
2023/10/18 06:32:14;;;;;;;4.00;3.58;;;8.20;99.90;;;;;;5054304;28;20264;-61
2023/10/18 06:34:43;;;;;;;6.03;3.90;;;8.30;99.90;;;;;;5054150;28;20544;-61
2023/10/18 06:37:31;;;;;;;4.75;4.00;;;8.20;99.90;;;;;;5054399;28;20524;-61
2023/10/18 06:40:00;;;;;;;6.22;4.13;;;8.20;99.90;;;;;;5054390;28;20186;-61
2023/10/18 06:42:27;;;;;;;5.25;3.78;;;8.20;99.90;;;;;;5054132;28;20218;-61
2023/10/18 06:44:54;;;;;;;9.07;4.65;;;8.30;99.90;;;;;;5053960;28;20209;-61
2023/10/18 06:47:23;;;;;;;5.75;4.18;;;8.30;99.90;;;;;;5053747;28;20207;-62
2023/10/18 06:49:51;;;;;;;5.82;4.13;;;8.30;99.90;;;;;;5054098;28;20235;-61
2023/10/18 06:52:17;;;;;;;7.28;4.60;;;8.30;99.90;;;;;;5052770;28;20179;-61
2023/10/18 06:54:46;;;;;;;4.93;4.00;;;8.30;99.90;;;;;;5053861;28;20184;-62
2023/10/18 06:57:27;;;;;;;6.40;3.80;;;8.30;99.90;;;;;;5053768;28;20184;-61
2023/10/18 06:59:54;;;;;;;9.98;4.97;;;8.30;99.90;;;;;;5054196;28;20170;-61
2023/10/18 07:02:26;;;;;;;6.57;4.43;;;8.40;99.90;;;;;;5053874;28;20182;-62
2023/10/18 07:04:56;;;;;;;7.90;4.45;;;8.50;99.90;;;;;;5053830;28;20681;-61
2023/10/18 07:07:23;;;;;;;8.70;5.85;;;8.60;99.90;;;;;;5053678;28;20199;-61
2023/10/18 07:09:53;;;;;;;6.07;5.07;;;8.60;99.90;;;;;;5053661;28;20214;-62
2023/10/18 07:12:20;;;;;;;7.28;4.63;;;8.70;99.90;;;;;;5053533;28;20178;-61
2023/10/18 07:14:46;;;;;;;8.77;5.30;;;8.70;99.90;;;;;;5053712;28;20171;-61
2023/10/18 07:17:14;;;;;;;8.13;5.43;;;8.80;99.90;;;;;;5053852;28;20583;-61
2023/10/18 07:19:49;;;;;;;7.35;4.90;;;8.80;99.90;;;;;;5053263;28;20581;-62
2023/10/18 07:22:19;;;;;;;9.32;5.95;;;8.90;99.90;;;;;;5053561;28;20284;-62
2023/10/18 07:24:54;;;;;;;7.80;5.22;;;8.90;99.90;;;;;;5053324;28;20698;-61
2023/10/18 07:27:23;;;;;;;6.65;5.05;;;8.90;99.90;;;;;;5053526;28;20710;-61
2023/10/18 07:29:49;;;;;;;6.45;5.25;;;8.90;99.90;;;;;;5053710;28;20183;-62
2023/10/18 07:32:20;;;;;;;7.22;4.70;;;8.90;99.90;;;;;;5053346;28;20633;-62
2023/10/18 07:34:48;;;;;;;4.50;3.83;;;9.00;99.90;;;;;;5053301;28;20183;-61
2023/10/18 07:37:17;;;;;;;4.38;3.58;;;9.00;99.90;;;;;;5053068;28;20547;-62
2023/10/18 07:39:56;;;;;;;6.00;3.70;;;9.00;99.90;;;;;;5053478;28;20171;-62
2023/10/18 07:42:22;;;;;;;5.47;3.97;;;9.00;99.90;;;;;;5053284;28;20683;-61
2023/10/18 07:44:53;;;;;;;4.90;3.78;;;9.00;99.90;;;;;;5053111;28;20624;-62
2023/10/18 07:47:20;;;;;;;5.13;4.05;;;9.20;99.90;;;;;;5053099;28;20551;-61
2023/10/18 07:49:46;;;;;;;5.15;4.45;;;9.20;99.90;;;;;;5052006;28;20588;-61
2023/10/18 07:52:13;;;;;;;4.53;4.13;;;9.20;99.90;;;;;;5053244;28;20647;-61
2023/10/18 07:54:39;;;;;;;4.35;3.80;;;9.30;99.90;;;;;;5053023;28;20694;-61
2023/10/18 07:57:11;;;;;;;6.03;4.00;;;9.30;99.90;;;;;;5053648;28;20207;-61
2023/10/18 07:59:45;;;;;;;3.90;3.50;;;9.30;99.90;;;;;;5057341;28;20179;-61
2023/10/18 08:02:30;;;;;;;4.65;3.72;;;9.40;99.90;;;;;;5057051;28;20186;-61
2023/10/18 08:05:00;;;;;;;6.50;3.50;;;9.50;99.90;;;;;;5057244;28;20232;-61
2023/10/18 08:07:29;;;;;;;4.78;3.88;;;9.50;99.90;;;;;;5056865;28;20302;-61
2023/10/18 08:09:57;;;;;;;5.57;3.95;;;9.60;99.90;;;;;;5057040;28;20183;-62
2023/10/18 08:12:33;;;;;;;3.95;3.55;;;9.60;99.90;;;;;;5056878;28;20183;-61
2023/10/18 08:14:59;;;;;;;4.75;3.65;;;9.70;99.90;;;;;;5056939;28;20210;-61
2023/10/18 08:17:44;;;;;;;4.72;3.90;;;9.80;99.90;;;;;;5057030;28;20205;-62
2023/10/18 08:23:19;;;;;;;5.60;3.92;;;10.00;99.90;;;;;;5055612;28;20188;-62
2023/10/18 08:25:51;;;;;;;5.97;3.85;;;10.10;99.90;;;;;;5056977;28;20171;-61
2023/10/18 08:28:17;;;;;;;5.68;4.32;;;10.10;99.90;;;;;;5056859;28;20239;-61
2023/10/18 08:33:10;;;;;;;5.45;3.60;;;10.10;99.90;;;;;;5056661;28;20187;-61
2023/10/18 08:35:36;;;;;;;8.27;4.13;;;10.10;99.90;;;;;;5056381;28;20258;-61
2023/10/18 08:38:02;;;;;;;4.35;3.95;;;10.10;99.90;;;;;;5056557;28;20324;-62
2023/10/18 08:40:36;;;;;;;3.80;3.50;;;10.10;99.90;;;;;;5056453;28;20172;-62
2023/10/18 08:43:18;;;;;;;5.40;3.90;;;10.20;99.90;;;;;;5056464;28;20178;-62
2023/10/18 08:45:48;;;;;;;6.75;3.58;;;10.30;99.90;;;;;;5056393;28;20651;-61
2023/10/18 08:48:27;;;;;;;5.03;4.03;;;10.30;99.90;;;;;;5056041;28;20199;-61
2023/10/18 08:50:55;;;;;;;4.82;3.80;;;10.30;99.90;;;;;;5056414;28;20221;-62
2023/10/18 08:53:25;;;;;;;5.60;4.15;;;10.40;99.90;;;;;;5056130;28;20632;-62
2023/10/18 08:55:53;;;;;;;5.72;3.90;;;10.40;99.90;;;;;;5054911;28;20179;-62
2023/10/18 08:58:20;;;;;;;5.35;3.80;;;10.50;99.90;;;;;;5056123;28;20183;-61
2023/10/18 09:03:23;;;;;;;4.53;3.63;;;10.50;99.90;;;;;;5056188;28;20210;-61
2023/10/18 09:06:07;;;;;;;5.32;3.53;;;10.50;99.90;;;;;;5055989;28;20505;-62
2023/10/18 09:08:38;;;;;;;5.35;3.90;;;10.60;99.90;;;;;;5055112;28;20210;-62
2023/10/18 09:11:27;;;;;;;5.38;3.83;;;10.70;99.90;;;;;;5055229;28;20176;-62
2023/10/18 09:14:07;;;;;;;5.22;4.20;;;10.80;99.90;;;;;;5055819;28;20318;-62
2023/10/18 09:16:40;;;;;;;4.72;3.78;;;10.80;99.90;;;;;;5055883;28;20228;-62
2023/10/18 09:19:07;;;;;;;5.18;4.22;;;10.90;99.90;;;;;;5055792;28;20187;-62
2023/10/18 09:21:36;;;;;;;7.05;3.85;;;11.00;99.90;;;;;;5055355;28;20236;-62
2023/10/18 09:24:06;;;;;;;5.22;4.10;;;11.10;99.90;;;;;;5055753;28;20171;-62
2023/10/18 09:26:41;;;;;;;4.35;3.88;;;11.20;99.90;;;;;;5055654;28;20187;-62
2023/10/18 09:29:08;;;;;;;9.00;3.95;;;11.20;99.90;;;;;;5054533;28;20671;-62
2023/10/18 09:31:34;;;;;;;3.80;3.42;;;11.40;99.90;;;;;;5055341;28;20187;-61
2023/10/18 09:34:07;;;;;;;5.13;3.67;;;11.40;99.90;;;;;;5055388;28;20230;-61
2023/10/18 09:36:38;;;;;;;5.10;3.78;;;11.40;99.90;;;;;;5055821;28;20203;-62
2023/10/18 09:39:09;;;;;;;4.35;3.90;;;11.50;99.90;;;;;;5055434;28;20261;-62
2023/10/18 09:41:37;;;;;;;6.15;3.95;;;11.60;99.90;;;;;;5055181;28;20517;-62
2023/10/18 09:44:03;;;;;;;4.93;3.67;;;11.60;99.90;;;;;;5055159;28;20176;-61
2023/10/18 09:46:31;;;;;;;4.40;3.80;;;11.70;99.90;;;;;;5055172;28;20171;-61
2023/10/18 09:48:58;;;;;;;4.05;3.67;;;11.70;99.90;;;;;;5055015;28;20242;-61
2023/10/18 09:51:24;;;;;;;3.88;3.58;;;11.70;99.90;;;;;;5055201;28;20179;-62
2023/10/18 09:53:56;;;;;;;4.55;3.80;;;11.80;99.90;;;;;;5054979;28;20632;-62
2023/10/18 09:56:45;;;;;;;6.15;3.90;;;11.90;99.90;;;;;;5055019;28;20230;-61
2023/10/18 09:59:16;;;;;;;4.40;3.70;;;11.90;99.90;;;;;;5054634;28;20179;-61
2023/10/18 10:04:13;;;;;;;6.60;3.80;;;12.20;99.90;;;;;;5055193;28;20211;-62
2023/10/18 10:07:41;;;;;;;7.72;3.80;;;12.20;99.90;;;;;;5054971;28;20706;-62
2023/10/18 10:09:38;;;;;;;6.50;5.03;;;12.30;99.90;;;;;;5053916;28;20631;-61
2023/10/18 10:12:10;;;;;;;5.85;3.65;;;12.40;99.90;;;;;;5054807;28;20205;-62
2023/10/18 10:14:37;;;;;;;6.47;4.35;;;12.40;99.90;;;;;;5054840;28;20179;-62
2023/10/18 10:17:08;;;;;;;7.55;4.30;;;12.50;99.90;;;;;;5054688;28;20175;-62
2023/10/18 10:19:41;;;;;;;5.07;3.30;;;12.60;99.90;;;;;;5054434;28;20242;-62
2023/10/18 10:22:08;;;;;;;4.93;3.40;;;12.50;99.90;;;;;;5054180;28;20520;-62
2023/10/18 10:24:43;;;;;;;6.07;3.70;;;12.60;99.90;;;;;;5054738;28;20175;-62
2023/10/18 10:32:46;;;;;;;3.75;3.28;;;12.70;99.90;;;;;;5054561;28;20228;-62
2023/10/18 10:35:17;;;;;;;6.45;3.60;;;12.90;99.90;;;;;;5054188;28;20541;-62
2023/10/18 10:38:08;;;;;;;4.03;3.63;;;13.00;99.90;;;;;;5054284;28;20236;-62
2023/10/18 10:40:39;;;;;;;4.97;3.67;;;13.00;99.90;;;;;;5054206;28;20179;-62
2023/10/18 10:43:09;;;;;;;6.15;3.50;;;13.00;99.90;;;;;;5054059;28;20179;-62
2023/10/18 10:48:32;;;;;;;7.60;3.67;;;13.00;99.90;;;;;;5054147;28;20272;-62
2023/10/18 10:51:22;;;;;;;7.28;4.00;;;13.00;99.90;;;;;;5054044;28;20183;-61
2023/10/18 10:53:57;;;;;;;5.82;3.85;;;13.00;99.90;;;;;;5053877;28;20237;-61
2023/10/18 10:56:26;;;;;;;3.50;3.20;;;13.10;99.90;;;;;;5054044;28;20174;-61
2023/10/18 11:01:57;;;;;;;4.88;3.60;;;13.20;99.90;;;;;;5053837;28;20202;-61
2023/10/18 11:04:28;;;;;;;5.60;3.38;;;13.30;99.90;;;;;;5053659;28;20631;-62
2023/10/18 11:07:04;;;;;;;4.18;3.08;;;13.30;99.90;;;;;;5053764;28;20532;-62
2023/10/18 11:09:33;;;;;;;5.88;3.17;;;13.40;99.90;;;;;;5053634;28;20185;-62
2023/10/18 11:12:13;;;;;;;5.03;3.15;;;13.40;99.90;;;;;;5053520;28;20567;-62
2023/10/18 11:14:42;;;;;;;4.85;3.65;;;13.60;99.90;;;;;;5053740;28;20620;-61
2023/10/18 11:19:53;;;;;;;5.18;3.10;;;14.00;99.90;;;;;;5053358;28;20328;-61
2023/10/18 11:22:22;;;;;;;3.80;3.08;;;14.10;99.90;;;;;;5053485;28;20178;-62
2023/10/18 11:24:51;;;;;;;4.55;3.10;;;14.00;99.90;;;;;;5053569;28;20168;-62
2023/10/18 11:27:25;;;;;;;4.07;3.25;;;14.10;99.90;;;;;;5053632;28;20233;-62
2023/10/18 11:29:55;;;;;;;6.20;3.67;;;14.20;99.90;;;;;;5053426;28;20279;-63
2023/10/18 11:32:27;;;;;;;8.57;7.53;;;14.30;99.90;;;;;;5052695;28;20171;-62
2023/10/18 11:35:12;;;;;;;8.43;7.05;;;14.50;99.90;;;;;;5053256;28;20175;-62
2023/10/18 11:37:39;;;;;;;6.15;4.63;;;14.50;99.90;;;;;;5053399;28;20198;-62
2023/10/18 11:40:21;;;;;;;5.70;3.85;;;14.40;99.90;;;;;;5053247;28;20271;-62
2023/10/18 11:43:08;;;;;;;6.78;3.50;;;14.30;99.90;;;;;;5053267;28;20190;-62
2023/10/18 11:45:44;;;;;;;13.55;12.18;;;14.30;99.90;;;;;;5053097;28;20182;-62
2023/10/18 11:48:10;;;;;;;8.95;8.15;;;14.30;99.90;;;;;;5053116;28;20212;-63
2023/10/18 11:50:50;;;;;;;8.98;7.38;;;14.20;99.90;;;;;;5053145;28;20260;-63
2023/10/18 11:53:23;;;;;;;8.00;4.13;;;14.20;99.90;;;;;;5053113;28;20206;-63
2023/10/18 11:55:55;;;;;;;6.80;4.32;;;14.20;99.90;;;;;;5053086;28;20172;-62
2023/10/18 11:58:24;;;;;;;6.60;3.88;;;14.20;99.90;;;;;;5053294;28;20187;-62
2023/10/18 12:00:55;;;;;;;4.97;3.40;;;14.10;99.90;;;;;;5053040;28;20588;-62
2023/10/18 12:03:23;;;;;;;8.63;4.50;;;14.30;99.90;;;;;;5052913;28;20575;-63
2023/10/18 12:05:49;;;;;;;7.55;4.53;;;14.40;99.90;;;;;;5052917;28;20185;-62
2023/10/18 12:08:17;;;;;;;6.63;3.95;;;14.50;99.90;;;;;;5051551;28;20223;-63
2023/10/18 12:10:43;;;;;;;5.97;4.95;;;14.50;99.90;;;;;;5052747;28;20183;-63
2023/10/18 12:13:12;;;;;;;6.10;3.67;;;14.60;99.90;;;;;;5052986;28;20176;-63
2023/10/18 12:15:40;;;;;;;5.45;3.80;;;14.60;99.90;;;;;;5052891;28;20206;-61
2023/10/18 12:18:08;;;;;;;7.18;3.97;;;14.70;99.90;;;;;;5052891;28;20198;-63
2023/10/18 12:20:37;;;;;;;7.20;3.70;;;14.70;99.90;;;;;;5052672;28;20356;-63
2023/10/18 12:23:21;;;;;;;7.15;3.47;;;14.70;99.90;;;;;;5052639;28;20175;-63
2023/10/18 12:25:48;;;;;;;6.32;3.38;;;14.80;99.90;;;;;;5053031;28;20172;-63
2023/10/18 12:28:19;;;;;;;6.32;3.83;;;14.80;99.90;;;;;;5052743;28;20199;-62
2023/10/18 12:30:52;;;;;;;6.15;3.40;;;14.80;99.90;;;;;;5052833;28;20262;-63
2023/10/18 12:33:27;;;;;;;4.13;3.40;;;14.90;99.90;;;;;;5052694;28;20182;-62
2023/10/18 12:35:56;;;;;;;4.57;3.33;;;15.00;99.90;;;;;;5052894;28;20189;-62
2023/10/18 12:38:43;;;;;;;4.70;3.13;;;15.10;99.90;;;;;;5052593;28;20179;-63
2023/10/18 12:41:18;;;;;;;5.13;3.40;;;15.10;99.90;;;;;;5052616;28;20184;-64
2023/10/18 12:43:44;;;;;;;5.78;3.40;;;15.20;99.90;;;;;;5053904;28;20559;-63
2023/10/18 12:46:16;;;;;;;6.32;3.00;;;15.30;99.90;;;;;;5056278;28;20258;-63
2023/10/18 12:48:43;;;;;;;5.57;3.05;;;15.30;99.90;;;;;;5056548;28;20349;-63
2023/10/18 12:51:12;;;;;;;5.97;2.67;;;15.30;99.90;;;;;;5056376;28;20191;-63
2023/10/18 12:53:43;;;;;;;5.38;3.20;;;15.40;99.90;;;;;;5056279;28;20171;-63
2023/10/18 12:59:22;;;;;;;7.38;2.85;;;15.40;99.90;;;;;;5056375;28;20694;-63
2023/10/18 13:04:06;;;;;;;5.05;2.75;;;15.40;99.90;;;;;;5056093;28;20183;-63
2023/10/18 13:06:41;;;;;;;8.18;3.10;;;15.50;99.90;;;;;;5056050;28;20641;-63
2023/10/18 13:09:19;;;;;;;4.65;2.97;;;15.50;99.90;;;;;;5055719;28;20332;-63
2023/10/18 13:14:23;;;;;;;7.53;3.20;;;15.60;99.90;;;;;;5056033;28;20179;-62
2023/10/18 13:16:51;;;;;;;4.65;3.00;;;15.70;99.90;;;;;;5055855;28;20172;-64
2023/10/18 13:19:19;;;;;;;4.03;2.90;;;15.70;99.90;;;;;;5055464;28;20187;-64
2023/10/18 13:21:47;;;;;;;4.30;2.75;;;15.70;99.90;;;;;;5055940;28;20202;-64
2023/10/18 13:24:17;;;;;;;5.43;3.13;;;15.80;99.90;;;;;;5055697;28;20624;-63
2023/10/18 13:26:44;;;;;;;5.05;2.85;;;15.60;99.90;;;;;;5055501;28;20636;-64
2023/10/18 13:29:16;;;;;;;7.35;3.25;;;15.60;99.90;;;;;;5055469;28;20211;-63
2023/10/18 13:31:44;;;;;;;4.82;3.15;;;15.50;99.90;;;;;;5055461;28;20722;-63
2023/10/18 13:34:18;;;;;;;5.22;3.35;;;15.60;99.90;;;;;;5055384;28;20183;-63
2023/10/18 13:36:45;;;;;;;4.88;2.95;;;15.50;99.90;;;;;;5055528;28;20183;-63
2023/10/18 13:39:14;;;;;;;4.65;3.00;;;15.60;99.90;;;;;;5055431;28;20270;-63
2023/10/18 13:41:41;;;;;;;5.78;3.33;;;15.60;99.90;;;;;;5055381;28;20179;-63
2023/10/18 13:44:08;;;;;;;6.40;3.30;;;15.60;99.90;;;;;;5055342;28;20159;-63
2023/10/18 13:46:34;;;;;;;7.32;3.50;;;15.50;99.90;;;;;;5055070;28;20199;-63
2023/10/18 13:49:00;;;;;;;20.08;18.05;;;15.50;99.90;;;;;;5055243;28;20206;-63
2023/10/18 13:51:26;;;;;;;10.30;8.70;;;15.50;99.90;;;;;;5055358;28;20183;-64
2023/10/18 13:53:52;;;;;;;7.20;4.18;;;15.50;99.90;;;;;;5055186;28;20190;-63
2023/10/18 13:56:20;;;;;;;4.68;3.17;;;15.50;99.90;;;;;;5054296;28;20773;-63
2023/10/18 13:58:46;;;;;;;7.03;3.70;;;15.50;99.90;;;;;;5054921;28;20198;-64
2023/10/18 14:01:18;;;;;;;7.15;3.65;;;15.40;99.90;;;;;;5054797;28;20184;-64
2023/10/18 14:03:48;;;;;;;8.90;4.13;;;15.50;99.90;;;;;;5055066;28;20183;-63
2023/10/18 14:06:14;;;;;;;6.75;3.50;;;15.40;99.90;;;;;;5053533;28;20172;-63